Time;durP1;ratioP1;P1;durP2;ratioP2;P2;SDS_P1;SDS_P2;PMS_P1;PMS_P2;Temp;Humidity;BMP_temperature;BMP_pressure;BME280_temperature;BME280_humidity;BME280_pressure;Samples;Min_cycle;Max_cycle;Signal;HPM_P1;HPM_P2
2024/01/29 00:00:41;;;;;;;21.40;16.00;;;;;;;-2.60;81.38;101742.13;3160176;22;20303;-80
2024/01/29 00:01:57;;;;;;;21.93;15.20;;;;;;;-2.60;81.58;101736.16;3160547;22;20644;-80
2024/01/29 00:03:11;;;;;;;19.27;12.93;;;;;;;-2.59;81.77;101735.34;3161171;22;20359;-80
2024/01/29 00:04:25;;;;;;;20.90;13.30;;;;;;;-2.59;81.52;101740.47;3159694;22;20250;-80
2024/01/29 00:05:38;;;;;;;19.60;14.97;;;;;;;-2.61;81.51;101736.91;3160871;22;20031;-80
2024/01/29 00:06:53;;;;;;;19.37;16.47;;;;;;;-2.60;81.77;101733.59;3159379;22;20265;-80
2024/01/29 00:08:06;;;;;;;23.73;15.50;;;;;;;-2.61;81.77;101739.47;3160051;22;20020;-79
2024/01/29 00:09:21;;;;;;;20.80;16.07;;;;;;;-2.60;81.50;101739.56;3160812;22;20329;-80
2024/01/29 00:10:34;;;;;;;23.37;16.73;;;;;;;-2.60;81.27;101738.69;3160967;22;20019;-79
2024/01/29 00:11:49;;;;;;;27.10;19.17;;;;;;;-2.59;81.63;101740.47;3160781;22;20266;-79
2024/01/29 00:13:03;;;;;;;22.30;16.47;;;;;;;-2.61;81.80;101742.03;3160266;22;20019;-80
2024/01/29 00:14:17;;;;;;;19.95;15.98;;;;;;;-2.64;81.51;101738.47;3160988;22;20744;-80
2024/01/29 00:15:32;;;;;;;24.93;16.53;;;;;;;-2.63;81.30;101735.16;3161049;22;20073;-79
2024/01/29 00:16:47;;;;;;;20.30;15.57;;;;;;;-2.63;81.30;101737.72;3160691;22;20250;-80
2024/01/29 00:18:02;;;;;;;22.20;15.13;;;;;;;-2.61;81.88;101735.25;3159848;22;20030;-79
2024/01/29 00:19:16;;;;;;;23.93;16.00;;;;;;;-2.61;81.67;101736.91;3160515;22;20266;-80
2024/01/29 00:20:30;;;;;;;22.17;15.07;;;;;;;-2.60;81.51;101733.59;3159545;22;20246;-79
2024/01/29 00:21:45;;;;;;;21.10;15.43;;;;;;;-2.59;81.50;101732.78;3160629;22;20266;-79
2024/01/29 00:22:58;;;;;;;24.07;18.33;;;;;;;-2.60;81.85;101733.59;3161053;22;20258;-79
2024/01/29 00:24:13;;;;;;;20.65;16.70;;;;;;;-2.59;81.53;101735.34;3160473;22;20350;-79
2024/01/29 00:25:26;;;;;;;22.77;15.70;;;;;;;-2.63;81.38;101735.16;3161219;22;20359;-79
2024/01/29 00:26:40;;;;;;;27.47;14.97;;;;;;;-2.64;81.43;101735.06;3160772;22;20258;-79
2024/01/29 00:27:54;;;;;;;18.63;14.73;;;;;;;-2.64;81.83;101735.06;3160096;22;20019;-79
2024/01/29 00:29:09;;;;;;;20.40;15.07;;;;;;;-2.64;81.60;101730.81;3161335;22;20258;-79
2024/01/29 00:30:22;;;;;;;18.60;13.27;;;;;;;-2.63;81.62;101724.94;3161039;22;20054;-80
2024/01/29 00:31:37;;;;;;;19.93;13.53;;;;;;;-2.62;81.42;101730.94;3160795;22;20292;-80
2024/01/29 00:32:50;;;;;;;20.20;15.73;;;;;;;-2.61;81.83;101734.34;3160471;22;20482;-79
2024/01/29 00:34:06;;;;;;;17.53;12.70;;;;;;;-2.63;81.88;101734.28;3160906;22;20341;-80
2024/01/29 00:35:19;;;;;;;19.50;13.30;;;;;;;-2.65;81.94;101739.28;3161200;22;20023;-80
2024/01/29 00:36:34;;;;;;;27.67;14.83;;;;;;;-2.65;81.64;101736.72;3160142;22;20355;-80
2024/01/29 00:37:47;;;;;;;23.57;15.80;;;;;;;-2.65;81.56;101729.06;3160193;22;20023;-80
2024/01/29 00:39:09;;;;;;;20.00;13.93;;;;;;;-2.65;81.71;101726.50;3165915;22;20842;-80
2024/01/29 00:40:24;;;;;;;15.10;13.37;;;;;;;-2.64;81.92;101730.81;3162590;22;20020;-79
2024/01/29 00:41:38;;;;;;;18.13;13.53;;;;;;;-2.65;81.70;101723.97;3161429;22;20269;-80
2024/01/29 00:42:52;;;;;;;21.13;15.00;;;;;;;-2.67;81.65;101734.88;3162027;22;20266;-79
2024/01/29 00:44:06;;;;;;;17.80;14.03;;;;;;;-2.68;81.35;101726.31;3160938;22;20302;-80
2024/01/29 00:45:20;;;;;;;25.67;14.70;;;;;;;-2.69;81.35;101726.22;3160836;22;20133;-79
2024/01/29 00:46:34;;;;;;;22.93;13.33;;;;;;;-2.69;81.85;101733.88;3160963;22;20266;-80
2024/01/29 00:47:48;;;;;;;16.47;13.03;;;;;;;-2.70;81.92;101730.44;3160508;22;20024;-79
2024/01/29 00:49:02;;;;;;;16.13;12.63;;;;;;;-2.71;81.39;101731.25;3165929;22;20262;-80
2024/01/29 00:50:19;;;;;;;15.30;13.60;;;;;;;-2.72;81.30;101732.03;3161220;22;20115;-80
2024/01/29 00:51:33;;;;;;;19.70;13.30;;;;;;;-2.72;81.60;101736.25;3161020;22;20262;-80
2024/01/29 00:52:47;;;;;;;17.23;13.33;;;;;;;-2.73;81.51;101731.94;3160919;22;20257;-80
2024/01/29 00:54:02;;;;;;;21.43;14.77;;;;;;;-2.73;81.62;101737.06;3160732;22;20381;-79
2024/01/29 00:55:15;;;;;;;20.17;13.33;;;;;;;-2.73;81.35;101737.06;3160520;22;20683;-80
2024/01/29 00:56:30;;;;;;;18.03;14.20;;;;;;;-2.77;81.56;101735.97;3160368;22;20262;-79
2024/01/29 00:57:43;;;;;;;22.67;13.40;;;;;;;-2.77;81.42;101741.06;3161162;22;20126;-79
2024/01/29 00:58:58;;;;;;;15.60;12.90;;;;;;;-2.78;81.75;101736.75;3160668;22;20765;-79
2024/01/29 01:00:12;;;;;;;20.17;13.97;;;;;;;-2.76;81.67;101744.50;3160732;22;20016;-80
2024/01/29 01:01:26;;;;;;;16.23;13.50;;;;;;;-2.78;81.32;101744.44;3161085;22;20813;-80
2024/01/29 01:02:40;;;;;;;18.90;14.13;;;;;;;-2.79;81.30;101744.31;3161093;22;20265;-80
2024/01/29 01:03:55;;;;;;;19.03;14.53;;;;;;;-2.81;81.60;101738.22;3160443;22;20344;-80
2024/01/29 01:05:08;;;;;;;15.93;13.17;;;;;;;-2.82;81.97;101745.00;3161006;22;20079;-80
2024/01/29 01:06:24;;;;;;;18.07;13.03;;;;;;;-2.84;81.56;101738.91;3161231;22;20269;-80
2024/01/29 01:07:37;;;;;;;18.90;12.27;;;;;;;-2.83;81.51;101740.69;3161349;22;20122;-80
2024/01/29 01:08:52;;;;;;;16.73;11.77;;;;;;;-2.85;81.33;101743.13;3160799;22;20329;-80
2024/01/29 01:10:07;;;;;;;15.97;12.00;;;;;;;-2.85;81.94;101737.16;3162232;22;20019;-80
2024/01/29 01:11:21;;;;;;;18.60;12.60;;;;;;;-2.86;81.82;101736.28;3162345;22;20258;-80
2024/01/29 01:12:34;;;;;;;20.17;12.00;;;;;;;-2.85;81.57;101738.03;3160454;22;20250;-80
2024/01/29 01:13:49;;;;;;;15.43;11.50;;;;;;;-2.84;81.68;101741.47;3167404;22;20334;-80
2024/01/29 01:15:03;;;;;;;15.50;11.63;;;;;;;-2.86;81.67;101741.38;3162190;22;20055;-80
2024/01/29 01:16:18;;;;;;;14.10;10.93;;;;;;;-2.88;81.30;101737.84;3162127;22;20249;-80
2024/01/29 01:17:31;;;;;;;15.27;12.70;;;;;;;-2.91;81.37;101745.31;3166802;22;20271;-79
2024/01/29 01:18:46;;;;;;;14.33;10.97;;;;;;;-2.92;81.46;101740.09;3164032;22;20304;-79
2024/01/29 01:19:59;;;;;;;17.10;12.50;;;;;;;-2.92;81.45;101735.00;3160432;22;20032;-79
2024/01/29 01:21:14;;;;;;;15.87;11.97;;;;;;;-2.94;81.92;101732.38;3161075;22;20666;-79
2024/01/29 01:22:29;;;;;;;16.43;12.47;;;;;;;-2.95;81.63;101742.47;3160899;22;20419;-79
2024/01/29 01:23:43;;;;;;;16.30;12.03;;;;;;;-2.95;81.93;101734.81;3160909;22;20297;-79
2024/01/29 01:24:56;;;;;;;16.77;10.43;;;;;;;-2.95;81.74;101745.91;3160530;22;20266;-79
2024/01/29 01:26:11;;;;;;;15.93;12.00;;;;;;;-2.96;81.70;101735.59;3160323;22;20333;-80
2024/01/29 01:27:24;;;;;;;16.07;11.33;;;;;;;-2.93;81.82;101730.69;3160119;22;20023;-79
2024/01/29 01:28:39;;;;;;;14.90;13.00;;;;;;;-2.91;81.78;101740.22;3159742;22;20261;-79
2024/01/29 01:29:52;;;;;;;16.10;12.17;;;;;;;-2.88;81.83;101742.06;3159476;22;20047;-80
2024/01/29 01:31:06;;;;;;;17.17;12.10;;;;;;;-2.88;81.40;101742.06;3165270;22;20329;-80
2024/01/29 01:32:20;;;;;;;14.17;10.93;;;;;;;-2.87;81.62;101737.03;3159589;22;20126;-80
2024/01/29 01:33:34;;;;;;;21.40;12.40;;;;;;;-2.86;81.91;101731.16;3159767;22;20273;-80
2024/01/29 01:34:48;;;;;;;19.10;12.53;;;;;;;-2.84;81.49;101738.91;3165043;22;20050;-79
2024/01/29 01:36:02;;;;;;;14.73;10.47;;;;;;;-2.85;81.54;101743.13;3160073;22;20731;-79
2024/01/29 01:37:16;;;;;;;19.80;13.87;;;;;;;-2.83;81.69;101734.72;3161280;22;20019;-79
2024/01/29 01:38:32;;;;;;;13.73;11.07;;;;;;;-2.83;81.54;101738.16;3160471;22;20289;-79
2024/01/29 01:39:45;;;;;;;15.93;11.50;;;;;;;-2.82;81.87;101739.03;3159916;22;20015;-79
2024/01/29 01:40:59;;;;;;;20.97;12.17;;;;;;;-2.83;81.36;101743.25;3160159;22;20284;-79
2024/01/29 01:42:13;;;;;;;20.43;13.63;;;;;;;-2.85;81.33;101737.16;3160504;22;20024;-79
2024/01/29 01:43:27;;;;;;;17.33;11.63;;;;;;;-2.85;81.70;101732.03;3160558;22;20262;-78
2024/01/29 01:44:41;;;;;;;13.57;10.43;;;;;;;-2.87;81.24;101731.94;3160088;22;20027;-79
2024/01/29 01:46:07;;;;;;;14.93;11.87;;;;;;;-2.88;81.76;101735.28;3169922;22;20593;-78
2024/01/29 01:47:20;;;;;;;19.17;13.10;;;;;;;-2.89;81.29;101738.66;3160491;22;20027;-79
2024/01/29 01:48:35;;;;;;;15.43;12.20;;;;;;;-2.91;81.34;101724.00;3160827;22;20246;-79
2024/01/29 01:49:49;;;;;;;12.47;10.27;;;;;;;-2.92;81.40;101737.56;3160352;22;20020;-79
2024/01/29 01:51:04;;;;;;;13.30;10.90;;;;;;;-2.94;81.37;101731.50;3160339;22;20284;-79
2024/01/29 01:52:19;;;;;;;15.50;10.87;;;;;;;-2.96;81.63;101738.16;3159847;22;20015;-80
2024/01/29 01:53:36;;;;;;;14.37;11.00;;;;;;;-2.97;81.21;101746.59;3160237;22;20318;-80
2024/01/29 01:54:49;;;;;;;14.43;10.80;;;;;;;-2.98;81.50;101739.72;3164985;22;20590;-80
2024/01/29 01:56:05;;;;;;;11.30;10.20;;;;;;;-2.97;81.34;101744.03;3159550;22;20252;-79
2024/01/29 01:57:19;;;;;;;14.30;11.37;;;;;;;-2.97;81.74;101744.94;3159841;22;20635;-79
2024/01/29 01:58:33;;;;;;;16.07;10.90;;;;;;;-2.94;81.34;101739.16;3160208;22;20273;-79
2024/01/29 01:59:48;;;;;;;11.67;10.57;;;;;;;-2.94;81.60;101742.59;3159535;22;20332;-80
2024/01/29 02:01:02;;;;;;;14.20;10.40;;;;;;;-2.92;81.82;101740.09;3160281;22;20292;-79
2024/01/29 02:02:16;;;;;;;19.73;13.40;;;;;;;-2.93;81.56;101738.34;3160415;22;20571;-80
2024/01/29 02:03:31;;;;;;;18.10;11.77;;;;;;;-2.94;81.38;101739.16;3160525;22;20272;-79
2024/01/29 02:04:44;;;;;;;13.90;12.03;;;;;;;-2.95;81.39;101737.34;3159835;22;20023;-80
2024/01/29 02:05:59;;;;;;;13.77;9.87;;;;;;;-2.93;81.70;101738.34;3160381;22;20337;-79
2024/01/29 02:07:13;;;;;;;16.43;11.33;;;;;;;-2.93;81.38;101738.34;3160346;22;20119;-79
2024/01/29 02:08:27;;;;;;;14.17;11.20;;;;;;;-2.92;81.79;101743.56;3160658;22;20262;-80
2024/01/29 02:09:42;;;;;;;13.30;10.27;;;;;;;-2.93;81.26;101738.34;3160059;22;20024;-79
2024/01/29 02:10:58;;;;;;;17.57;12.27;;;;;;;-2.91;81.44;101741.88;3160297;22;20262;-79
2024/01/29 02:12:13;;;;;;;16.07;9.77;;;;;;;-2.92;81.62;101740.09;3159112;22;20243;-79
2024/01/29 02:13:27;;;;;;;15.57;10.70;;;;;;;-2.94;81.27;101740.03;3165008;22;20258;-79
2024/01/29 02:14:41;;;;;;;14.47;10.30;;;;;;;-2.96;81.13;101738.16;3159547;22;20597;-79
2024/01/29 02:15:55;;;;;;;13.50;10.13;;;;;;;-3.00;81.32;101736.19;3159262;22;20272;-79
2024/01/29 02:17:09;;;;;;;12.77;8.67;;;;;;;-3.03;81.50;101741.09;3160206;22;20062;-79
2024/01/29 02:18:23;;;;;;;13.23;9.97;;;;;;;-3.06;81.51;101741.78;3159970;22;20314;-79
2024/01/29 02:19:37;;;;;;;15.27;9.80;;;;;;;-3.09;81.45;101741.59;3159884;22;20038;-79
2024/01/29 02:20:51;;;;;;;14.33;9.83;;;;;;;-3.11;81.31;101735.50;3158989;22;20278;-79
2024/01/29 02:22:05;;;;;;;14.47;8.87;;;;;;;-3.13;81.66;101742.19;3159833;22;20030;-79
2024/01/29 02:23:20;;;;;;;13.33;9.70;;;;;;;-3.14;81.61;101743.84;3165361;22;20335;-79
2024/01/29 02:24:34;;;;;;;17.03;10.27;;;;;;;-3.14;81.87;101736.19;3159627;22;20019;-79
2024/01/29 02:25:48;;;;;;;15.27;8.63;;;;;;;-3.12;81.43;101741.41;3159797;22;20266;-79
2024/01/29 02:27:02;;;;;;;14.73;10.37;;;;;;;-3.11;82.01;101732.94;3159664;22;20501;-80
2024/01/29 02:28:17;;;;;;;12.97;10.67;;;;;;;-3.10;81.89;101733.06;3159013;22;20321;-80
2024/01/29 02:29:30;;;;;;;13.10;10.37;;;;;;;-3.09;81.93;101731.38;3159770;22;20034;-80
2024/01/29 02:30:45;;;;;;;15.47;9.40;;;;;;;-3.09;81.32;101739.06;3159256;22;20273;-80
2024/01/29 02:31:58;;;;;;;15.33;10.37;;;;;;;-3.09;81.56;101739.94;3158758;22;20431;-79
2024/01/29 02:33:12;;;;;;;14.93;11.07;;;;;;;-3.11;81.61;101744.03;3159863;22;20272;-80
2024/01/29 02:34:26;;;;;;;14.20;10.33;;;;;;;-3.13;81.69;101740.50;3159941;22;20034;-79
2024/01/29 02:35:40;;;;;;;11.97;9.23;;;;;;;-3.14;81.78;101733.63;3159437;22;20284;-79
2024/01/29 02:36:54;;;;;;;13.47;10.23;;;;;;;-3.13;81.48;101737.94;3159446;22;20030;-79
2024/01/29 02:38:08;;;;;;;11.60;9.67;;;;;;;-3.12;81.34;101734.63;3159701;22;20266;-80
2024/01/29 02:39:23;;;;;;;12.10;9.50;;;;;;;-3.12;81.69;101734.63;3159611;22;20024;-79
2024/01/29 02:40:38;;;;;;;19.07;10.30;;;;;;;-3.13;81.51;101739.63;3158741;22;20737;-79
2024/01/29 02:41:51;;;;;;;13.10;10.20;;;;;;;-3.14;81.59;101741.31;3159900;22;20254;-79
2024/01/29 02:43:06;;;;;;;10.87;9.53;;;;;;;-3.11;81.34;101744.03;3159559;22;20272;-79
2024/01/29 02:44:19;;;;;;;16.00;10.50;;;;;;;-3.12;81.66;101739.75;3158959;22;20015;-79
2024/01/29 02:45:34;;;;;;;18.43;9.87;;;;;;;-3.11;81.65;101738.06;3158592;22;20269;-79
2024/01/29 02:46:47;;;;;;;10.60;9.10;;;;;;;-3.09;81.60;101736.50;3159560;22;20030;-79
2024/01/29 02:48:02;;;;;;;13.50;9.87;;;;;;;-3.09;81.91;101739.94;3159378;22;20253;-80
2024/01/29 02:49:15;;;;;;;13.30;8.70;;;;;;;-3.09;81.46;101739.94;3170803;22;20019;-80
2024/01/29 02:50:30;;;;;;;14.20;9.63;;;;;;;-3.12;81.53;101734.63;3160506;22;20329;-81
2024/01/29 02:51:43;;;;;;;16.07;9.40;;;;;;;-3.13;81.88;101743.06;3159503;22;20080;-80
2024/01/29 02:52:59;;;;;;;14.87;9.10;;;;;;;-3.14;81.66;101733.63;3160130;22;20328;-79
2024/01/29 02:54:12;;;;;;;16.00;10.53;;;;;;;-3.14;81.46;101741.31;3160148;22;20031;-79
2024/01/29 02:55:28;;;;;;;14.27;10.10;;;;;;;-3.15;81.49;101739.53;3160052;22;20268;-79
2024/01/29 02:56:41;;;;;;;12.13;9.37;;;;;;;-3.16;81.68;101739.44;3158826;22;20024;-79
2024/01/29 02:57:56;;;;;;;15.00;10.10;;;;;;;-3.19;81.76;101741.81;3159834;22;20339;-79
2024/01/29 02:59:09;;;;;;;17.00;10.40;;;;;;;-3.20;81.63;101743.47;3159674;22;20023;-79
2024/01/29 03:00:24;;;;;;;9.67;8.47;;;;;;;-3.20;81.30;101735.81;3160294;22;20257;-79
2024/01/29 03:01:37;;;;;;;12.63;9.07;;;;;;;-3.19;81.94;101732.47;3160639;22;20019;-78
2024/01/29 03:02:51;;;;;;;14.77;9.77;;;;;;;-3.17;81.80;101743.66;3160027;22;20317;-79
2024/01/29 03:04:05;;;;;;;11.30;8.83;;;;;;;-3.16;81.65;101737.75;3159403;22;20069;-79
2024/01/29 03:05:20;;;;;;;18.53;10.43;;;;;;;-3.14;81.40;101738.75;3159607;22;20266;-78
2024/01/29 03:06:33;;;;;;;14.20;9.17;;;;;;;-3.14;81.61;101738.75;3159736;22;20072;-79
2024/01/29 03:07:47;;;;;;;15.67;11.27;;;;;;;-3.13;81.36;101735.41;3159205;22;20749;-79
2024/01/29 03:09:01;;;;;;;11.10;8.63;;;;;;;-3.13;81.40;101735.41;3159428;22;20020;-78
2024/01/29 03:10:15;;;;;;;13.23;9.97;;;;;;;-3.11;81.51;101740.63;3159821;22;20341;-79
2024/01/29 03:11:30;;;;;;;13.33;10.57;;;;;;;-3.12;81.35;101738.84;3159952;22;20574;-78
2024/01/29 03:12:45;;;;;;;13.97;10.17;;;;;;;-3.14;81.43;101738.75;3159500;22;20567;-78
2024/01/29 03:13:58;;;;;;;11.57;10.07;;;;;;;-3.15;81.28;101737.00;3160043;22;20254;-79
2024/01/29 03:15:13;;;;;;;12.90;11.03;;;;;;;-3.15;81.31;101738.63;3159638;22;20262;-79
2024/01/29 03:16:26;;;;;;;10.60;8.87;;;;;;;-3.16;81.73;101737.75;3159128;22;20019;-79
2024/01/29 03:17:40;;;;;;;16.40;10.57;;;;;;;-3.17;81.54;101742.78;3159277;22;20737;-78
2024/01/29 03:18:54;;;;;;;12.67;9.83;;;;;;;-3.18;81.70;101733.34;3159815;22;20027;-79
2024/01/29 03:20:10;;;;;;;14.27;9.33;;;;;;;-3.16;81.75;101737.75;3159059;22;20246;-79
2024/01/29 03:21:24;;;;;;;12.03;9.70;;;;;;;-3.15;81.33;101743.75;3159398;22;20099;-78
2024/01/29 03:22:38;;;;;;;9.20;7.40;;;;;;;-3.16;81.68;101740.31;3159303;22;20633;-78
2024/01/29 03:23:52;;;;;;;15.10;9.37;;;;;;;-3.18;81.70;101735.91;3158659;22;20031;-79
2024/01/29 03:25:07;;;;;;;10.10;8.97;;;;;;;-3.19;81.64;101740.13;3159748;22;20262;-78
2024/01/29 03:26:20;;;;;;;11.67;9.47;;;;;;;-3.19;81.27;101740.13;3158875;22;20351;-78
2024/01/29 03:27:36;;;;;;;14.67;10.83;;;;;;;-3.20;81.30;101738.38;3159366;22;20337;-78
2024/01/29 03:28:50;;;;;;;11.27;8.83;;;;;;;-3.21;81.61;101734.03;3158646;22;20023;-79
2024/01/29 03:30:05;;;;;;;13.30;8.53;;;;;;;-3.19;81.30;101744.34;3158940;22;20579;-80
2024/01/29 03:31:19;;;;;;;13.07;8.70;;;;;;;-3.20;81.40;101743.47;3159155;22;20030;-80
2024/01/29 03:32:33;;;;;;;12.47;10.13;;;;;;;-3.19;81.37;101744.34;3159994;22;20274;-80
2024/01/29 03:33:46;;;;;;;13.43;9.37;;;;;;;-3.20;81.46;101750.22;3161104;22;20034;-79
2024/01/29 03:35:01;;;;;;;13.87;9.90;;;;;;;-3.21;81.74;101744.25;3161110;22;20269;-79
2024/01/29 03:36:15;;;;;;;12.83;9.27;;;;;;;-3.22;81.11;101739.06;3160018;22;20026;-80
2024/01/29 03:37:29;;;;;;;13.97;8.90;;;;;;;-3.25;81.43;101739.75;3160478;22;20729;-79
2024/01/29 03:38:43;;;;;;;13.30;9.67;;;;;;;-3.26;81.64;101734.53;3160179;22;20358;-79
2024/01/29 03:39:57;;;;;;;13.57;9.30;;;;;;;-3.27;81.27;101733.66;3159631;22;20336;-79
2024/01/29 03:41:11;;;;;;;12.27;10.03;;;;;;;-3.25;81.69;101734.63;3160307;22;20019;-79
2024/01/29 03:42:25;;;;;;;14.03;8.63;;;;;;;-3.24;81.16;101732.97;3160077;22;20255;-79
2024/01/29 03:43:40;;;;;;;13.97;10.23;;;;;;;-3.25;81.72;101733.72;3160265;22;20358;-79
2024/01/29 03:44:54;;;;;;;22.40;10.47;;;;;;;-3.25;81.25;101737.19;3159290;22;20358;-79
2024/01/29 03:46:08;;;;;;;11.27;8.93;;;;;;;-3.25;81.13;101734.63;3160330;22;20261;-80
2024/01/29 03:47:22;;;;;;;12.77;9.43;;;;;;;-3.26;81.51;101729.41;3160074;22;20346;-79
2024/01/29 03:48:36;;;;;;;13.97;8.90;;;;;;;-3.26;81.93;101734.53;3159098;22;20020;-79
2024/01/29 03:49:50;;;;;;;9.40;7.67;;;;;;;-3.27;81.29;101733.66;3160190;22;20273;-79
2024/01/29 03:51:03;;;;;;;11.80;9.00;;;;;;;-3.28;81.46;101734.41;3160037;22;20042;-79
2024/01/29 03:52:18;;;;;;;12.40;8.70;;;;;;;-3.29;81.25;101737.75;3163157;22;20242;-79
2024/01/29 03:53:31;;;;;;;10.83;7.57;;;;;;;-3.31;81.68;101736.78;3161954;22;20034;-79
2024/01/29 03:54:46;;;;;;;8.73;7.80;;;;;;;-3.32;81.26;101737.56;3160914;22;20265;-79
2024/01/29 03:55:59;;;;;;;11.17;7.93;;;;;;;-3.34;81.25;101740.00;3159367;22;20024;-79
2024/01/29 03:57:14;;;;;;;12.33;8.47;;;;;;;-3.36;81.30;101721.16;3160018;22;20811;-79
2024/01/29 03:58:27;;;;;;;10.67;7.50;;;;;;;-3.35;81.56;101734.81;3159888;22;20031;-79
2024/01/29 03:59:43;;;;;;;10.47;9.07;;;;;;;-3.34;81.35;101736.56;3159321;22;20342;-79
2024/01/29 04:00:56;;;;;;;10.50;7.93;;;;;;;-3.33;81.64;101730.69;3159467;22;20016;-79
2024/01/29 04:02:11;;;;;;;11.83;8.70;;;;;;;-3.32;81.76;101729.91;3159184;22;20333;-79
2024/01/29 04:03:25;;;;;;;10.80;8.27;;;;;;;-3.32;81.68;101733.34;3159483;22;20545;-79
2024/01/29 04:04:39;;;;;;;11.83;8.27;;;;;;;-3.33;81.45;101728.13;3159286;22;20270;-79
2024/01/29 04:05:52;;;;;;;9.43;8.30;;;;;;;-3.32;81.51;101732.47;3159598;22;20031;-80
2024/01/29 04:07:07;;;;;;;10.83;7.90;;;;;;;-3.31;81.32;101730.00;3160973;22;20358;-80
2024/01/29 04:08:21;;;;;;;9.70;8.70;;;;;;;-3.31;81.52;101724.00;3164367;22;20229;-79
2024/01/29 04:09:35;;;;;;;13.77;8.50;;;;;;;-3.30;81.63;101731.78;3173362;22;20721;-80
2024/01/29 04:10:49;;;;;;;11.83;8.13;;;;;;;-3.30;81.32;101730.91;3173523;22;20276;-78
2024/01/29 04:12:03;;;;;;;12.10;7.93;;;;;;;-3.32;81.83;101728.22;3170328;22;20259;-80
2024/01/29 04:13:17;;;;;;;10.30;8.47;;;;;;;-3.32;81.61;101728.22;3162524;22;20023;-80
2024/01/29 04:14:31;;;;;;;11.93;9.10;;;;;;;-3.32;81.65;101724.81;3162164;22;20273;-80
2024/01/29 04:15:47;;;;;;;14.70;9.60;;;;;;;-3.32;82.04;101729.91;3161496;22;20031;-80
2024/01/29 04:17:04;;;;;;;8.80;7.50;;;;;;;-3.31;81.58;101729.13;3162671;22;20266;-80
2024/01/29 04:18:18;;;;;;;12.60;8.43;;;;;;;-3.31;81.88;101724.88;3167530;22;20290;-80
2024/01/29 04:19:32;;;;;;;10.77;8.63;;;;;;;-3.30;81.89;101726.66;3168728;22;20394;-80
2024/01/29 04:20:46;;;;;;;13.07;8.30;;;;;;;-3.27;81.73;101730.22;3167908;22;20020;-80
2024/01/29 04:22:00;;;;;;;10.37;9.20;;;;;;;-3.26;81.51;101724.31;3162171;22;20340;-80
2024/01/29 04:23:13;;;;;;;13.50;8.67;;;;;;;-3.28;81.88;101721.66;3161828;22;20020;-80
2024/01/29 04:24:29;;;;;;;10.03;7.23;;;;;;;-3.30;81.84;101720.69;3161118;22;20250;-79
2024/01/29 04:25:42;;;;;;;13.13;8.37;;;;;;;-3.32;81.44;101729.91;3161389;22;20027;-79
2024/01/29 04:26:57;;;;;;;15.30;8.30;;;;;;;-3.33;81.70;101723.94;3161607;22;20262;-79
2024/01/29 04:28:10;;;;;;;11.93;9.90;;;;;;;-3.31;81.83;101721.47;3163343;22;20023;-79
2024/01/29 04:29:25;;;;;;;9.63;7.23;;;;;;;-3.32;81.84;101723.13;3161532;22;20266;-78
2024/01/29 04:30:38;;;;;;;10.70;7.27;;;;;;;-3.32;81.65;101724.81;3166835;22;20019;-79
2024/01/29 04:31:54;;;;;;;9.50;7.70;;;;;;;-3.32;81.95;101728.22;3160938;22;20276;-79
2024/01/29 04:33:07;;;;;;;11.90;8.57;;;;;;;-3.31;81.63;101726.56;3161540;22;20043;-79
2024/01/29 04:34:22;;;;;;;9.23;8.23;;;;;;;-3.30;82.20;101725.78;3161734;22;20333;-79
2024/01/29 04:35:35;;;;;;;13.17;8.90;;;;;;;-3.31;81.55;101714.69;3160747;22;20026;-78
2024/01/29 04:36:50;;;;;;;8.47;7.67;;;;;;;-3.29;81.76;101722.44;3160668;22;20253;-79
2024/01/29 04:38:03;;;;;;;11.37;7.10;;;;;;;-3.29;82.10;101722.44;3160756;22;20035;-79
2024/01/29 04:39:18;;;;;;;9.17;7.27;;;;;;;-3.27;81.57;101720.00;3161013;22;20333;-78
2024/01/29 04:40:33;;;;;;;11.63;8.43;;;;;;;-3.26;81.60;101727.75;3160579;22;20340;-79
2024/01/29 04:41:47;;;;;;;10.37;7.67;;;;;;;-3.26;81.58;101725.19;3161783;22;20304;-79
2024/01/29 04:43:01;;;;;;;13.67;8.77;;;;;;;-3.28;81.77;101724.19;3161201;22;20258;-79
2024/01/29 04:44:15;;;;;;;16.93;9.80;;;;;;;-3.28;81.60;101734.41;3159854;22;20721;-78
2024/01/29 04:45:29;;;;;;;12.43;8.97;;;;;;;-3.30;81.83;101731.78;3160852;22;20020;-80
2024/01/29 04:46:43;;;;;;;11.77;9.50;;;;;;;-3.28;81.67;101734.41;3160308;22;20339;-80
2024/01/29 04:47:58;;;;;;;13.90;8.97;;;;;;;-3.27;81.64;101736.19;3159715;22;20019;-80
2024/01/29 04:49:12;;;;;;;11.50;8.87;;;;;;;-3.26;82.09;101731.97;3160442;22;20266;-79
2024/01/29 04:50:26;;;;;;;10.63;7.97;;;;;;;-3.24;81.70;101738.06;3160127;22;20569;-79
2024/01/29 04:51:40;;;;;;;11.43;9.53;;;;;;;-3.25;81.66;101734.63;3159428;22;20361;-80
2024/01/29 04:52:55;;;;;;;14.20;8.70;;;;;;;-3.25;81.99;101726.97;3164890;22;20323;-79
2024/01/29 04:54:09;;;;;;;12.63;8.37;;;;;;;-3.25;81.92;101736.28;3163643;22;20273;-78
2024/01/29 04:55:23;;;;;;;12.47;7.53;;;;;;;-3.24;81.61;101731.28;3165019;22;20255;-80
2024/01/29 04:56:37;;;;;;;9.40;8.47;;;;;;;-3.23;81.55;101730.47;3160934;22;20274;-80
2024/01/29 04:57:50;;;;;;;9.53;8.17;;;;;;;-3.24;81.55;101722.75;3160267;22;20332;-80
2024/01/29 04:59:05;;;;;;;14.17;10.03;;;;;;;-3.25;81.60;101726.97;3160874;22;20350;-79
2024/01/29 05:00:19;;;;;;;15.50;9.13;;;;;;;-3.27;81.54;101726.00;3160797;22;20016;-81
2024/01/29 05:01:33;;;;;;;8.37;7.10;;;;;;;-3.30;81.69;101726.66;3161333;22;20262;-81
2024/01/29 05:02:47;;;;;;;9.53;7.67;;;;;;;-3.30;81.85;101728.34;3160948;22;20030;-81
2024/01/29 05:04:04;;;;;;;10.83;9.70;;;;;;;-3.30;81.78;101730.91;3159939;22;20242;-81
2024/01/29 05:05:18;;;;;;;31.37;19.67;;;;;;;-3.32;81.66;101730.78;3160402;22;20254;-81
2024/01/29 05:06:32;;;;;;;19.17;13.57;;;;;;;-3.30;81.58;101730.91;3165767;22;20515;-79
2024/01/29 05:07:45;;;;;;;13.20;10.77;;;;;;;-3.30;81.62;101726.66;3159802;22;20304;-81
2024/01/29 05:09:00;;;;;;;14.60;8.77;;;;;;;-3.28;81.59;101726.75;3160079;22;20337;-80
2024/01/29 05:10:15;;;;;;;9.83;8.50;;;;;;;-3.28;81.46;101724.19;3160150;22;20021;-78
2024/01/29 05:11:29;;;;;;;11.70;9.37;;;;;;;-3.27;81.78;101731.09;3159966;22;20316;-78
2024/01/29 05:12:42;;;;;;;14.40;7.63;;;;;;;-3.30;81.48;101730.91;3160637;22;20254;-80
2024/01/29 05:13:57;;;;;;;12.33;7.70;;;;;;;-3.31;82.07;101732.53;3160080;22;20597;-77
2024/01/29 05:15:11;;;;;;;13.40;8.43;;;;;;;-3.30;81.77;101741.09;3159754;22;20034;-81
2024/01/29 05:16:27;;;;;;;12.20;8.37;;;;;;;-3.31;81.60;101736.78;3159224;22;20247;-80
2024/01/29 05:17:40;;;;;;;13.27;8.33;;;;;;;-3.32;81.51;101742.69;3160406;22;20262;-80
2024/01/29 05:18:55;;;;;;;20.30;9.93;;;;;;;-3.34;81.46;101739.13;3157518;22;20293;-81
2024/01/29 05:20:11;;;;;;;8.40;7.33;;;;;;;-3.37;81.76;101741.50;3162853;22;20020;-79
2024/01/29 05:21:25;;;;;;;11.30;9.90;;;;;;;-3.37;81.61;101744.03;3160326;22;20598;-80
2024/01/29 05:22:40;;;;;;;10.87;8.93;;;;;;;-3.37;81.42;101736.38;3164949;22;20254;-79
2024/01/29 05:23:54;;;;;;;12.63;8.70;;;;;;;-3.39;81.50;101737.94;3159544;22;20341;-78
2024/01/29 05:25:08;;;;;;;10.67;8.90;;;;;;;-3.41;81.95;101745.50;3160484;22;20281;-81
2024/01/29 05:26:22;;;;;;;11.97;8.70;;;;;;;-3.42;81.79;101745.41;3160107;22;20266;-81
2024/01/29 05:27:36;;;;;;;8.07;7.27;;;;;;;-3.44;81.75;101741.88;3160121;22;20020;-81
2024/01/29 05:28:50;;;;;;;14.67;7.47;;;;;;;-3.44;81.73;101749.53;3159312;22;20747;-80
2024/01/29 05:30:04;;;;;;;10.53;7.70;;;;;;;-3.47;81.89;101747.66;3159844;22;20019;-81
2024/01/29 05:31:19;;;;;;;9.13;8.00;;;;;;;-3.47;81.52;101746.78;3160120;22;20294;-81
2024/01/29 05:32:32;;;;;;;11.27;8.07;;;;;;;-3.48;81.58;101750.09;3159469;22;20251;-79
2024/01/29 05:33:47;;;;;;;10.20;7.43;;;;;;;-3.49;81.74;101748.34;3165055;22;20260;-79
2024/01/29 05:35:00;;;;;;;9.83;7.60;;;;;;;-3.51;81.61;101749.13;3160353;22;20024;-80
2024/01/29 05:36:16;;;;;;;9.83;8.37;;;;;;;-3.51;81.78;101744.03;3159665;22;20247;-80
2024/01/29 05:37:32;;;;;;;14.13;8.27;;;;;;;-3.51;82.02;101748.25;3160922;22;20024;-81
2024/01/29 05:38:46;;;;;;;10.43;7.77;;;;;;;-3.52;81.96;101749.91;3160667;22;20266;-80
2024/01/29 05:39:59;;;;;;;10.50;7.67;;;;;;;-3.54;81.57;101746.38;3160495;22;20243;-80